Meath Environmental Platform

Observations

Time Sensor AQI SAQ Temp °C Hum % Pres Pa CO μg/m³ H₂S μg/m³ NO μg/m³ NO₂ μg/m³ O₃ μg/m³ SO₂ μg/m³ CO₂e PPM VOC PPM PM1 μg/m³ PM2.5 μg/m³ PM4 μg/m³ PM10 μg/m³ TPS µm
Tuesday 11 August 2026
01:38 Trim Market St 2 14.6 64 57,663 0.28 0 1.95 12.23 47.02 0 2.14 2.83 4.23
01:37 Trim Patrick St 1 12.9 72 38,460 0.25 5.38 3.69 32.27 12.3 0 3.71 7.16 7.88
01:36 Trim Patrick St 1 12.9 72 38,460 0.26 5.4 3.76 32.26 9.68 0 3.71 7.17 7.89
01:36 Trim Market St 2 14.6 64 57,665 0.27 0 2.14 14.91 37.7 0 1.43 3.82 6.87
01:35 Trim Patrick St 1 12.9 72 38,460 0.26 5.04 3.76 33.62 10.46 0 3.71 7.17 7.89
01:35 Trim Market St 2 14.6 64 57,669 0.27 0 2.05 13.68 37.7 0 1.43 3.82 6.87
01:34 Trim Patrick St 1 12.9 72 38,460 0.25 5.12 3.77 30.45 13.62 0 3.71 7.89 8.67
01:34 Trim Market St 2 14.6 64 57,674 0.28 0 2.01 14.57 38.73 0 0.71 3.83 5.54
01:33 Trim Patrick St 2 12.9 72 38,460 0.25 5.17 3.76 32.26 10.92 0 4.57 8.61 9.47
01:32 Trim Patrick St 2 12.9 72 38,460 0.25 5.27 3.76 32.26 12.1 0 3.71 7.89 8.68
01:31 Trim Patrick St 2 13 72 38,460 0.23 5.4 3.73 33.54 12.95 0 2.86 7.18 7.9
01:31 Trim Market St 2 14.7 64 57,690 0.26 0 1.89 13.82 37.61 0 1.43 4.33 6.2
01:30 Trim Patrick St 2 13 72 38,460 0.24 5.43 3.74 32.62 12.73 0 2 5.76 6.33
01:27 Trim Patrick St 2 13 72 38,459 0.25 5.46 3.7 32.62 11.53 0 2.86 7.2 7.92
01:26 Trim Patrick St 2 13 72 38,459 0.24 5.4 3.73 33.52 11.17 0 2.86 7.92 8.71
01:25 Trim Patrick St 2 13.1 72 38,459 0.24 5.25 3.7 31.62 11.81 0 3.71 7.93 8.72
01:23 Trim Patrick St 2 13.1 71 38,459 0.25 5.87 3.7 34.33 11.11 0 3.71 7.22 7.94
01:21 Trim Market St 2 14.8 64 57,734 0.27 0 1.82 15.71 39.67 0 1.43 3.36 4.87
01:20 Trim Patrick St 2 13.1 71 38,457 0.24 5.67 3.61 33.43 12.99 0 2.86 7.22 7.95
01:20 Trim Market St 2 14.8 64 57,739 0.29 0 2.07 12.83 36.04 0 2.85 3.86 5.53